createdAt,value
2023-11-30T00:01:00.856Z,98.14
2023-11-30T00:03:28.209Z,98.57
2023-11-30T00:05:55.819Z,98.29
2023-11-30T00:08:23.002Z,98.67
2023-11-30T00:10:50.237Z,98.60
2023-11-30T00:13:17.414Z,98.48
2023-11-30T00:15:47.054Z,99.10
2023-11-30T00:18:15.106Z,99.23
2023-11-30T00:20:42.276Z,99.72
2023-11-30T00:23:09.553Z,99.13
2023-11-30T00:25:36.905Z,99.59
2023-11-30T00:28:04.149Z,99.58
2023-11-30T00:30:31.403Z,99.44
2023-11-30T00:32:58.720Z,99.86
2023-11-30T00:35:26.255Z,99.63
2023-11-30T00:37:53.488Z,99.94
2023-11-30T00:40:20.737Z,99.78
2023-11-30T00:42:48.100Z,100.00
2023-11-30T00:45:15.384Z,100.00
2023-11-30T00:47:43.197Z,100.00
2023-11-30T00:50:10.382Z,100.00
2023-11-30T00:52:37.611Z,100.00
2023-11-30T00:55:05.064Z,100.00
2023-11-30T00:57:32.357Z,100.00
2023-11-30T01:00:02.632Z,100.00
2023-11-30T01:02:29.944Z,100.00
2023-11-30T01:04:57.745Z,100.00
2023-11-30T01:07:25.103Z,100.00
2023-11-30T01:09:52.412Z,100.00
2023-11-30T01:12:19.827Z,100.00
2023-11-30T01:14:47.175Z,100.00
2023-11-30T01:17:14.640Z,100.00
2023-11-30T01:19:42.666Z,100.00
2023-11-30T01:22:09.888Z,100.00
2023-11-30T01:24:37.083Z,100.00
2023-11-30T01:27:04.650Z,100.00
2023-11-30T01:29:32.431Z,100.00
2023-11-30T01:31:59.774Z,100.00
2023-11-30T01:34:26.965Z,100.00
2023-11-30T01:36:54.204Z,100.00
2023-11-30T01:39:21.442Z,100.00
2023-11-30T01:41:48.603Z,100.00
2023-11-30T01:44:15.817Z,100.00
2023-11-30T01:46:43.170Z,100.00
2023-11-30T01:49:10.783Z,100.00
2023-11-30T01:51:38.447Z,100.00
2023-11-30T01:54:08.129Z,100.00
2023-11-30T01:56:39.321Z,100.00
2023-11-30T01:59:08.665Z,100.00
2023-11-30T02:01:36.614Z,100.00
2023-11-30T02:04:14.487Z,100.00
2023-11-30T02:06:41.997Z,100.00
2023-11-30T02:09:09.280Z,100.00
2023-11-30T02:11:36.580Z,100.00
2023-11-30T02:14:04.713Z,100.00
2023-11-30T02:16:32.199Z,99.76
2023-11-30T02:19:00.785Z,100.00
2023-11-30T02:21:28.269Z,100.00
2023-11-30T02:23:55.962Z,100.00
2023-11-30T02:26:23.244Z,100.00
2023-11-30T02:28:50.521Z,100.00
2023-11-30T02:31:17.731Z,100.00
2023-11-30T02:33:44.859Z,100.00
2023-11-30T02:36:13.814Z,100.00
2023-11-30T02:38:41.112Z,100.00
2023-11-30T02:41:08.662Z,99.72
2023-11-30T02:43:35.836Z,100.00
2023-11-30T02:46:03.130Z,99.95
2023-11-30T02:48:30.431Z,100.00
2023-11-30T02:50:58.128Z,100.00
2023-11-30T02:53:25.358Z,99.76
2023-11-30T02:55:52.562Z,99.87
2023-11-30T02:58:19.808Z,100.00
2023-11-30T03:00:48.906Z,100.00
2023-11-30T03:03:16.300Z,99.82
2023-11-30T03:05:43.579Z,99.90
2023-11-30T03:08:10.934Z,99.99
2023-11-30T03:10:38.463Z,99.81
2023-11-30T03:13:05.709Z,99.90
2023-11-30T03:15:33.000Z,99.82
2023-11-30T03:18:00.391Z,99.42
2023-11-30T03:20:27.556Z,99.88
2023-11-30T03:22:54.729Z,100.00
2023-11-30T03:25:22.044Z,99.08
2023-11-30T03:27:49.214Z,99.25
2023-11-30T03:30:16.794Z,99.43
2023-11-30T03:32:44.833Z,99.26
2023-11-30T03:35:12.222Z,99.75
2023-11-30T03:37:41.849Z,100.00
2023-11-30T03:40:10.141Z,99.55
2023-11-30T03:42:37.451Z,99.38
2023-11-30T03:45:05.663Z,99.50
2023-11-30T03:47:34.196Z,100.00
2023-11-30T03:50:01.429Z,99.83
2023-11-30T03:52:28.660Z,99.52
2023-11-30T03:54:55.812Z,99.45
2023-11-30T03:57:23.163Z,99.72
2023-11-30T03:59:50.512Z,100.00
2023-11-30T04:02:17.859Z,99.62
2023-11-30T04:04:45.141Z,99.42
2023-11-30T04:07:12.476Z,99.50
2023-11-30T04:09:39.758Z,100.00
2023-11-30T04:12:07.278Z,99.47
2023-11-30T04:14:34.681Z,100.00
2023-11-30T04:17:04.510Z,100.00
2023-11-30T04:19:32.169Z,100.00
2023-11-30T04:21:59.409Z,100.00
2023-11-30T04:24:26.648Z,99.80
2023-11-30T04:26:55.029Z,100.00
2023-11-30T04:29:22.266Z,99.96
2023-11-30T04:31:49.577Z,100.00
2023-11-30T04:34:16.766Z,99.72
2023-11-30T04:36:44.032Z,100.00
2023-11-30T04:39:13.069Z,100.00
2023-11-30T04:41:40.359Z,100.00
2023-11-30T04:44:07.624Z,100.00
2023-11-30T04:46:34.908Z,100.00
2023-11-30T04:49:02.711Z,100.00
2023-11-30T04:51:30.028Z,100.00
2023-11-30T04:53:57.357Z,100.00
2023-11-30T04:56:24.573Z,100.00
2023-11-30T04:58:51.809Z,100.00
2023-11-30T05:01:19.052Z,100.00
2023-11-30T05:03:46.493Z,100.00
2023-11-30T05:06:14.010Z,100.00
2023-11-30T05:08:41.238Z,100.00
2023-11-30T05:11:08.494Z,100.00
2023-11-30T05:13:35.677Z,100.00
2023-11-30T05:16:03.033Z,100.00
2023-11-30T05:18:30.233Z,100.00
2023-11-30T05:20:58.177Z,100.00
2023-11-30T05:23:25.838Z,100.00
2023-11-30T05:25:53.116Z,100.00
2023-11-30T05:28:20.396Z,100.00
2023-11-30T05:30:47.636Z,100.00
2023-11-30T05:33:16.559Z,100.00
2023-11-30T05:35:43.886Z,100.00
2023-11-30T05:38:11.079Z,100.00
2023-11-30T05:40:38.366Z,100.00
2023-11-30T05:43:06.485Z,100.00
2023-11-30T05:45:33.759Z,100.00
2023-11-30T05:48:01.633Z,100.00
2023-11-30T05:50:29.544Z,100.00
2023-11-30T05:52:56.902Z,100.00
2023-11-30T05:55:24.064Z,100.00
2023-11-30T05:57:51.296Z,100.00
2023-11-30T06:00:19.309Z,100.00
2023-11-30T06:02:46.608Z,100.00
2023-11-30T06:05:14.008Z,100.00
2023-11-30T06:07:41.281Z,100.00
2023-11-30T06:10:11.732Z,100.00
2023-11-30T06:12:40.463Z,100.00
2023-11-30T06:15:08.142Z,100.00
2023-11-30T06:17:35.384Z,100.00
2023-11-30T06:20:05.800Z,100.00
2023-11-30T06:22:35.264Z,100.00
2023-11-30T06:25:02.384Z,100.00
2023-11-30T06:27:29.703Z,100.00
2023-11-30T06:29:56.972Z,100.00
2023-11-30T06:32:24.140Z,100.00
2023-11-30T06:34:51.481Z,100.00
2023-11-30T06:37:18.743Z,100.00
2023-11-30T06:39:45.921Z,100.00
2023-11-30T06:42:13.345Z,100.00
2023-11-30T06:44:45.291Z,100.00
2023-11-30T06:47:12.820Z,100.00
2023-11-30T06:49:40.045Z,99.62
2023-11-30T06:52:07.545Z,100.00
2023-11-30T06:54:35.021Z,100.00
2023-11-30T06:57:02.332Z,99.71
2023-11-30T06:59:31.930Z,99.90
2023-11-30T07:02:00.545Z,99.02
2023-11-30T07:04:29.760Z,98.96
2023-11-30T07:06:56.972Z,98.96
2023-11-30T07:09:24.231Z,98.76
2023-11-30T07:11:51.382Z,98.54
2023-11-30T07:14:18.646Z,98.73
2023-11-30T07:16:45.892Z,98.06
2023-11-30T07:19:14.192Z,98.46
2023-11-30T07:21:41.598Z,97.88
2023-11-30T07:24:11.516Z,97.56
2023-11-30T07:26:40.412Z,97.82
2023-11-30T07:29:07.630Z,97.32
2023-11-30T07:31:36.000Z,97.32
2023-11-30T07:34:04.507Z,97.51
2023-11-30T07:36:31.921Z,96.92
2023-11-30T07:38:59.364Z,96.88
2023-11-30T07:41:26.684Z,96.26
2023-11-30T07:43:54.456Z,95.93
2023-11-30T07:46:21.766Z,95.62
2023-11-30T07:48:49.116Z,95.74
2023-11-30T07:51:16.558Z,95.92
2023-11-30T07:53:43.931Z,95.30
2023-11-30T07:56:11.486Z,95.08
2023-11-30T07:58:38.812Z,94.81
2023-11-30T08:01:06.699Z,93.94
2023-11-30T08:03:34.226Z,94.86
2023-11-30T08:06:01.515Z,94.01
2023-11-30T08:08:28.847Z,94.25
2023-11-30T08:10:57.057Z,93.44
2023-11-30T08:13:25.470Z,93.61
2023-11-30T08:15:52.802Z,93.14
2023-11-30T08:18:25.683Z,92.71
2023-11-30T08:20:55.637Z,92.66
2023-11-30T08:23:23.556Z,92.26
2023-11-30T08:25:51.087Z,91.38
2023-11-30T08:28:18.614Z,91.49
2023-11-30T08:30:45.963Z,91.25
2023-11-30T08:33:13.447Z,90.85
2023-11-30T08:35:40.853Z,90.83
2023-11-30T08:38:08.087Z,90.55
2023-11-30T08:40:35.316Z,89.88
2023-11-30T08:43:02.513Z,89.48
2023-11-30T08:45:29.877Z,89.16
2023-11-30T08:47:57.467Z,89.42
2023-11-30T08:50:25.096Z,89.14
2023-11-30T08:52:52.457Z,88.86
2023-11-30T08:55:19.734Z,88.26
2023-11-30T08:57:47.091Z,87.74
2023-11-30T09:00:14.698Z,88.06
2023-11-30T09:02:43.073Z,87.09
2023-11-30T09:05:13.562Z,87.06
2023-11-30T09:07:40.877Z,87.27
2023-11-30T09:10:08.338Z,87.45
2023-11-30T09:12:35.768Z,88.00
2023-11-30T09:15:10.243Z,88.41
2023-11-30T09:17:37.770Z,87.90
2023-11-30T09:20:09.273Z,87.87
2023-11-30T09:22:36.830Z,88.35
2023-11-30T09:25:04.542Z,88.46
2023-11-30T09:27:32.550Z,88.65
2023-11-30T09:29:59.973Z,88.26
2023-11-30T09:32:27.698Z,88.39
2023-11-30T09:34:54.928Z,88.39
2023-11-30T09:37:22.210Z,87.87
2023-11-30T09:39:50.673Z,87.93
2023-11-30T09:42:18.204Z,87.22
2023-11-30T09:44:45.601Z,86.45
2023-11-30T09:47:13.195Z,87.17
2023-11-30T09:49:40.705Z,86.69
2023-11-30T09:52:08.373Z,86.66
2023-11-30T09:54:36.050Z,86.91
2023-11-30T09:57:03.564Z,86.94
2023-11-30T09:59:31.088Z,86.92
2023-11-30T10:02:04.502Z,86.30
2023-11-30T10:04:33.967Z,86.52
2023-11-30T10:07:01.653Z,86.51
2023-11-30T10:09:28.950Z,86.38
2023-11-30T10:11:56.333Z,86.43
2023-11-30T10:14:24.074Z,86.27
2023-11-30T10:16:51.600Z,86.80
2023-11-30T10:19:19.639Z,86.30
2023-11-30T10:21:47.055Z,86.15
2023-11-30T10:24:14.426Z,86.51
2023-11-30T10:26:44.688Z,85.80
2023-11-30T10:29:17.129Z,86.38
2023-11-30T10:31:45.316Z,86.00
2023-11-30T10:34:13.701Z,85.65
2023-11-30T10:36:43.729Z,85.39
2023-11-30T10:39:19.900Z,85.31
2023-11-30T10:41:55.363Z,85.54
2023-11-30T10:44:35.071Z,85.13
2023-11-30T10:47:02.659Z,85.19
2023-11-30T10:49:30.737Z,84.89
2023-11-30T10:52:04.323Z,85.38
2023-11-30T10:55:05.946Z,84.86
2023-11-30T10:57:34.284Z,85.20
2023-11-30T11:00:01.642Z,85.00
2023-11-30T11:02:48.804Z,85.06
2023-11-30T11:05:20.135Z,84.91
2023-11-30T11:07:53.050Z,85.25
2023-11-30T11:10:40.234Z,85.15
2023-11-30T11:13:07.700Z,84.53
2023-11-30T11:15:36.079Z,84.42
2023-11-30T11:18:09.013Z,84.28
2023-11-30T11:20:37.935Z,83.88
2023-11-30T11:23:05.098Z,83.79
2023-11-30T11:25:45.158Z,83.32
2023-11-30T11:28:12.899Z,83.25
2023-11-30T11:30:45.302Z,83.35
2023-11-30T11:33:15.193Z,82.93
2023-11-30T11:35:43.010Z,82.26
2023-11-30T11:38:10.923Z,82.98
2023-11-30T11:40:42.081Z,82.36
2023-11-30T11:43:09.810Z,82.18
2023-11-30T11:45:38.441Z,82.21
2023-11-30T11:48:06.479Z,83.03
2023-11-30T11:50:33.903Z,82.43
2023-11-30T11:53:02.282Z,82.76
2023-11-30T11:55:29.672Z,82.72
2023-11-30T11:57:57.516Z,82.63
2023-11-30T12:00:26.020Z,83.21
2023-11-30T12:03:04.471Z,83.43
2023-11-30T12:05:31.849Z,83.17
2023-11-30T12:08:04.603Z,83.07
2023-11-30T12:10:41.139Z,83.27
2023-11-30T12:13:11.529Z,83.80
2023-11-30T12:15:39.007Z,83.67
2023-11-30T12:18:07.084Z,83.33
2023-11-30T12:20:34.776Z,83.04
2023-11-30T12:23:02.313Z,83.61
2023-11-30T12:25:32.547Z,82.74
2023-11-30T12:27:59.863Z,83.37
2023-11-30T12:30:27.160Z,82.65
2023-11-30T12:32:54.450Z,82.42
2023-11-30T12:35:21.895Z,83.07
2023-11-30T12:37:52.543Z,82.85
2023-11-30T12:40:19.972Z,83.10
2023-11-30T12:42:47.334Z,83.17
2023-11-30T12:45:14.831Z,83.23
2023-11-30T12:47:42.736Z,82.83
2023-11-30T12:50:11.329Z,82.88
2023-11-30T12:52:38.898Z,82.86
2023-11-30T12:55:06.723Z,83.43
2023-11-30T12:57:36.137Z,83.04
2023-11-30T13:00:10.904Z,83.20
2023-11-30T13:02:38.497Z,83.16
2023-11-30T13:05:06.244Z,83.33
2023-11-30T13:07:33.384Z,83.13
2023-11-30T13:10:00.861Z,83.63
2023-11-30T13:12:28.255Z,84.04
2023-11-30T13:14:57.820Z,84.00
2023-11-30T13:17:26.688Z,83.53
2023-11-30T13:19:54.204Z,83.82
2023-11-30T13:22:22.988Z,83.99
2023-11-30T13:24:50.708Z,84.08
2023-11-30T13:27:17.990Z,84.02
2023-11-30T13:29:45.268Z,83.97
2023-11-30T13:34:44.867Z,83.57
2023-11-30T13:37:12.146Z,84.08
2023-11-30T13:39:39.396Z,84.40
2023-11-30T13:42:07.116Z,84.36
2023-11-30T13:44:34.440Z,84.08
2023-11-30T13:47:01.974Z,84.26
2023-11-30T13:49:29.271Z,84.50
2023-11-30T13:51:56.564Z,84.57
2023-11-30T13:54:25.037Z,84.42
2023-11-30T13:56:52.556Z,84.08
2023-11-30T13:59:19.879Z,84.15
2023-11-30T14:01:47.365Z,84.74
2023-11-30T14:04:14.694Z,84.75
2023-11-30T14:06:42.420Z,84.95
2023-11-30T14:09:15.182Z,84.55
2023-11-30T14:11:42.837Z,84.50
2023-11-30T14:14:10.176Z,84.40
2023-11-30T14:16:38.953Z,85.16
2023-11-30T14:19:06.232Z,84.46
2023-11-30T14:21:33.590Z,84.65
2023-11-30T14:24:00.825Z,85.18
2023-11-30T14:26:28.084Z,85.01
2023-11-30T14:28:55.271Z,85.13
2023-11-30T14:31:22.530Z,84.96
2023-11-30T14:33:49.882Z,85.28
2023-11-30T14:36:17.127Z,85.28
2023-11-30T14:38:45.289Z,85.61
2023-11-30T14:41:12.584Z,85.46
2023-11-30T14:43:40.243Z,85.41
2023-11-30T14:46:07.703Z,85.94
2023-11-30T14:48:34.925Z,85.95
2023-11-30T14:51:02.283Z,85.81
2023-11-30T14:53:29.536Z,85.81
2023-11-30T14:55:56.877Z,85.80
2023-11-30T14:58:24.060Z,85.59
2023-11-30T15:00:51.995Z,86.24
2023-11-30T15:03:19.584Z,85.69
2023-11-30T15:05:47.420Z,85.86
2023-11-30T15:08:15.516Z,86.34
2023-11-30T15:10:44.656Z,86.21
2023-11-30T15:13:12.011Z,87.09
2023-11-30T15:15:39.353Z,87.16
2023-11-30T15:18:06.710Z,87.37
2023-11-30T15:20:34.014Z,87.54
2023-11-30T15:23:01.211Z,87.45
2023-11-30T15:25:28.432Z,87.66
2023-11-30T15:27:55.732Z,87.46
2023-11-30T15:30:23.381Z,87.64
2023-11-30T15:32:50.886Z,87.68
2023-11-30T15:35:18.129Z,88.22
2023-11-30T15:37:52.998Z,87.57
2023-11-30T15:40:22.595Z,87.44
2023-11-30T15:42:52.151Z,87.17
2023-11-30T15:45:23.091Z,87.11
2023-11-30T15:47:51.626Z,87.25
2023-11-30T15:50:19.279Z,87.80
2023-11-30T15:52:46.867Z,87.63
2023-11-30T15:55:14.543Z,87.55
2023-11-30T15:57:42.884Z,87.75
2023-11-30T16:00:10.836Z,87.76
2023-11-30T16:02:42.966Z,88.34
2023-11-30T16:05:10.467Z,87.97
2023-11-30T16:07:37.780Z,88.27
2023-11-30T16:10:06.152Z,88.28
2023-11-30T16:12:33.595Z,88.16
2023-11-30T16:15:01.065Z,88.17
2023-11-30T16:17:28.445Z,88.47
2023-11-30T16:19:55.830Z,88.68
2023-11-30T16:22:24.010Z,88.67
2023-11-30T16:24:51.302Z,88.80
2023-11-30T16:27:18.675Z,89.02
2023-11-30T16:29:45.923Z,88.95
2023-11-30T16:32:13.430Z,88.95
2023-11-30T16:34:40.658Z,88.64
2023-11-30T16:37:07.933Z,88.43
2023-11-30T16:39:36.757Z,88.98
2023-11-30T16:42:04.234Z,89.09
2023-11-30T16:44:31.543Z,88.88
2023-11-30T16:46:58.813Z,88.84
2023-11-30T16:49:26.215Z,88.70
2023-11-30T16:51:57.614Z,88.61
2023-11-30T16:54:27.863Z,88.85
2023-11-30T16:56:55.216Z,88.70
2023-11-30T16:59:22.380Z,88.72
2023-11-30T17:01:49.657Z,88.32
2023-11-30T17:04:17.003Z,88.41
2023-11-30T17:06:44.353Z,88.46
2023-11-30T17:09:11.696Z,88.86
2023-11-30T17:11:39.019Z,88.39
2023-11-30T17:14:06.688Z,87.88
2023-11-30T17:16:34.002Z,87.45
2023-11-30T17:19:01.331Z,87.52
2023-11-30T17:21:28.659Z,87.78
2023-11-30T17:23:58.733Z,87.85
2023-11-30T17:26:25.746Z,87.96
2023-11-30T17:28:53.518Z,87.70
2023-11-30T17:31:20.700Z,88.32
2023-11-30T17:33:48.399Z,88.28
2023-11-30T17:36:15.767Z,87.85
2023-11-30T17:38:43.071Z,88.35
2023-11-30T17:41:11.633Z,89.21
2023-11-30T17:43:38.982Z,88.35
2023-11-30T17:46:09.842Z,88.74
2023-11-30T17:48:37.276Z,88.46
2023-11-30T17:51:09.050Z,88.44
2023-11-30T17:53:36.394Z,88.77
2023-11-30T17:56:04.383Z,89.25
2023-11-30T17:58:32.510Z,89.13
2023-11-30T18:01:00.011Z,88.66
2023-11-30T18:03:29.036Z,88.32
2023-11-30T18:05:56.472Z,87.87
2023-11-30T18:08:23.740Z,88.13
2023-11-30T18:10:51.106Z,88.34
2023-11-30T18:13:19.293Z,87.50
2023-11-30T18:15:49.659Z,87.85
2023-11-30T18:18:17.075Z,87.75
2023-11-30T18:20:44.514Z,87.75
2023-11-30T18:23:11.744Z,88.11
2023-11-30T18:25:39.165Z,87.84
2023-11-30T18:28:06.337Z,88.09
2023-11-30T18:30:33.583Z,88.51
2023-11-30T18:33:00.925Z,87.78
2023-11-30T18:35:28.226Z,88.72
2023-11-30T18:37:55.419Z,87.78
2023-11-30T18:40:22.789Z,87.68
2023-11-30T18:42:49.978Z,87.44
2023-11-30T18:45:17.324Z,87.27
2023-11-30T18:47:44.516Z,86.72
2023-11-30T18:50:14.129Z,87.15
2023-11-30T18:52:41.316Z,87.88
2023-11-30T18:55:08.787Z,87.60
2023-11-30T18:57:36.992Z,86.66
2023-11-30T19:00:07.034Z,86.25
2023-11-30T19:02:34.266Z,85.27
2023-11-30T19:05:01.543Z,86.52
2023-11-30T19:07:31.363Z,86.76
2023-11-30T19:09:58.964Z,86.57
2023-11-30T19:12:26.311Z,86.33
2023-11-30T19:14:53.662Z,85.96
2023-11-30T19:17:20.931Z,86.27
2023-11-30T19:19:48.120Z,86.20
2023-11-30T19:22:15.464Z,85.50
2023-11-30T19:24:42.871Z,85.54
2023-11-30T19:27:10.156Z,85.42
2023-11-30T19:29:39.184Z,85.45
2023-11-30T19:32:06.635Z,85.23
2023-11-30T19:34:34.199Z,85.55
2023-11-30T19:37:01.417Z,85.52
2023-11-30T19:39:28.896Z,85.83
2023-11-30T19:41:56.221Z,85.57
2023-11-30T19:44:23.476Z,84.78
2023-11-30T19:46:50.930Z,85.74
2023-11-30T19:49:18.262Z,84.80
2023-11-30T19:51:45.492Z,85.31
2023-11-30T19:54:12.946Z,84.93
2023-11-30T19:56:41.980Z,84.54
2023-11-30T19:59:09.458Z,84.21
2023-11-30T20:01:37.167Z,84.70
2023-11-30T20:04:04.747Z,84.63
2023-11-30T20:06:32.154Z,83.62
2023-11-30T20:08:59.422Z,83.45
2023-11-30T20:11:26.737Z,84.00
2023-11-30T20:13:54.046Z,84.16
2023-11-30T20:16:21.378Z,83.41
2023-11-30T20:18:48.694Z,83.66
2023-11-30T20:21:22.505Z,84.36
2023-11-30T20:23:50.271Z,83.77
2023-11-30T20:26:19.564Z,82.98
2023-11-30T20:28:47.358Z,84.29
2023-11-30T20:31:15.383Z,84.22
2023-11-30T20:33:43.362Z,84.49
2023-11-30T20:36:10.881Z,83.23
2023-11-30T20:38:40.674Z,83.27
2023-11-30T20:41:10.543Z,84.62
2023-11-30T20:43:37.777Z,83.84
2023-11-30T20:46:05.304Z,84.52
2023-11-30T20:48:32.575Z,84.24
2023-11-30T20:50:59.840Z,83.98
2023-11-30T20:53:27.177Z,84.25
2023-11-30T20:55:54.516Z,84.31
2023-11-30T20:58:21.773Z,83.09
2023-11-30T21:00:49.174Z,83.91
2023-11-30T21:03:18.265Z,84.45
2023-11-30T21:05:46.881Z,83.87
2023-11-30T21:08:14.665Z,84.23
2023-11-30T21:10:42.057Z,83.95
2023-11-30T21:13:09.534Z,84.71
2023-11-30T21:15:36.901Z,83.99
2023-11-30T21:18:04.357Z,84.85
2023-11-30T21:20:31.694Z,84.07
2023-11-30T21:22:59.066Z,83.93
2023-11-30T21:25:26.467Z,83.90
2023-11-30T21:27:53.803Z,84.95
2023-11-30T21:30:21.562Z,84.39
2023-11-30T21:32:49.155Z,84.85
2023-11-30T21:35:16.649Z,84.99
2023-11-30T21:37:44.035Z,84.43
2023-11-30T21:40:11.847Z,84.80
2023-11-30T21:42:39.376Z,84.02
2023-11-30T21:45:07.308Z,84.80
2023-11-30T21:47:36.729Z,84.90
2023-11-30T21:50:19.697Z,83.98
2023-11-30T21:52:48.163Z,84.26
2023-11-30T21:55:16.475Z,84.68
2023-11-30T21:57:46.073Z,84.43
2023-11-30T22:00:15.264Z,84.00
2023-11-30T22:02:47.477Z,84.15
2023-11-30T22:05:23.772Z,84.59
2023-11-30T22:07:58.568Z,84.28
2023-11-30T22:10:26.009Z,84.80
2023-11-30T22:12:53.412Z,84.73
2023-11-30T22:15:22.279Z,84.94
2023-11-30T22:17:50.343Z,84.62
2023-11-30T22:20:17.820Z,83.80
2023-11-30T22:22:45.337Z,84.71
2023-11-30T22:25:13.097Z,84.37
2023-11-30T22:27:40.607Z,84.20
2023-11-30T22:30:09.173Z,83.54
2023-11-30T22:32:36.559Z,84.14
2023-11-30T22:35:04.193Z,83.50
2023-11-30T22:37:31.625Z,83.68
2023-11-30T22:39:59.182Z,84.29
2023-11-30T22:42:28.496Z,83.61
2023-11-30T22:44:56.572Z,84.50
2023-11-30T22:47:23.935Z,84.31
2023-11-30T22:49:53.562Z,83.25
2023-11-30T22:52:23.025Z,84.26
2023-11-30T22:54:50.557Z,84.12
2023-11-30T22:57:18.304Z,83.69
2023-11-30T22:59:45.708Z,83.95
2023-11-30T23:02:13.525Z,83.61
2023-11-30T23:04:41.230Z,83.45
2023-11-30T23:07:08.821Z,83.45
2023-11-30T23:09:36.486Z,83.54
2023-11-30T23:12:04.236Z,82.48
2023-11-30T23:14:31.639Z,83.21
2023-11-30T23:16:58.972Z,83.21
2023-11-30T23:19:28.896Z,83.03
2023-11-30T23:21:56.083Z,81.60
2023-11-30T23:24:29.015Z,82.65
2023-11-30T23:26:59.296Z,83.15
2023-11-30T23:29:26.798Z,82.87
2023-11-30T23:31:54.203Z,82.54
2023-11-30T23:34:21.564Z,83.19
2023-11-30T23:36:49.034Z,81.99
2023-11-30T23:39:16.552Z,83.21
2023-11-30T23:41:43.894Z,82.30
2023-11-30T23:44:11.272Z,83.38
2023-11-30T23:46:38.870Z,83.29
2023-11-30T23:49:06.317Z,82.20
2023-11-30T23:51:33.698Z,82.81
2023-11-30T23:54:01.206Z,82.89
2023-11-30T23:56:28.726Z,81.88
2023-11-30T23:58:56.162Z,82.01
